createdAt,value
2018-07-23T00:00:12.724Z,4.90
2018-07-23T00:02:41.066Z,4.87
2018-07-23T00:05:09.376Z,5.13
2018-07-23T00:07:37.688Z,5.13
2018-07-23T00:10:06.140Z,4.60
2018-07-23T00:12:34.419Z,3.83
2018-07-23T00:15:02.677Z,4.50
2018-07-23T00:17:30.941Z,4.13
2018-07-23T00:19:59.239Z,4.03
2018-07-23T00:22:27.729Z,4.40
2018-07-23T00:24:55.997Z,4.07
2018-07-23T00:27:24.277Z,4.43
2018-07-23T00:29:52.555Z,4.50
2018-07-23T00:32:20.827Z,4.17
2018-07-23T00:34:49.089Z,4.20
2018-07-23T00:37:17.475Z,3.90
2018-07-23T00:39:45.752Z,3.63
2018-07-23T00:42:14.057Z,3.17
2018-07-23T00:44:42.331Z,3.07
2018-07-23T00:47:10.851Z,3.30
2018-07-23T00:49:39.125Z,3.17
2018-07-23T00:52:07.421Z,2.70
2018-07-23T00:54:35.732Z,3.00
2018-07-23T00:57:04.148Z,3.30
2018-07-23T00:59:32.635Z,2.87
2018-07-23T01:02:00.993Z,3.00
2018-07-23T01:04:29.314Z,2.80
2018-07-23T01:06:57.599Z,2.80
2018-07-23T01:09:25.594Z,3.30
2018-07-23T01:11:53.936Z,3.20
2018-07-23T01:14:22.335Z,3.23
2018-07-23T01:16:50.404Z,3.17
2018-07-23T01:19:18.680Z,3.37
2018-07-23T01:21:46.955Z,3.13
2018-07-23T01:24:15.248Z,3.30
2018-07-23T01:26:43.708Z,3.23
2018-07-23T01:29:12.002Z,3.67
2018-07-23T01:31:40.270Z,3.93
2018-07-23T01:34:08.519Z,3.17
2018-07-23T01:36:36.804Z,3.10
2018-07-23T01:39:06.422Z,3.53
2018-07-23T01:41:34.921Z,3.67
2018-07-23T01:44:03.200Z,3.80
2018-07-23T01:46:31.450Z,3.77
2018-07-23T01:48:59.778Z,4.43
2018-07-23T01:51:28.069Z,4.20
2018-07-23T01:53:56.332Z,4.53
2018-07-23T01:56:24.781Z,4.37
2018-07-23T01:58:53.056Z,3.70
2018-07-23T02:01:21.369Z,4.40
2018-07-23T02:03:49.654Z,4.20
2018-07-23T02:06:18.162Z,4.60
2018-07-23T02:08:46.551Z,6.77
2018-07-23T02:11:15.007Z,6.80
2018-07-23T02:13:43.514Z,7.30
2018-07-23T02:16:11.842Z,6.40
2018-07-23T02:18:40.125Z,7.20
2018-07-23T02:21:08.410Z,6.87
2018-07-23T02:23:36.906Z,6.93
2018-07-23T02:26:05.405Z,6.53
2018-07-23T02:28:33.677Z,5.57
2018-07-23T02:31:02.023Z,5.33
2018-07-23T02:33:30.295Z,4.60
2018-07-23T02:35:58.589Z,4.70
2018-07-23T02:38:27.002Z,5.10
2018-07-23T02:40:55.330Z,4.83
2018-07-23T02:43:23.591Z,7.17
2018-07-23T02:45:51.885Z,6.07
2018-07-23T02:48:20.217Z,5.10
2018-07-23T02:50:48.515Z,5.10
2018-07-23T02:53:16.821Z,5.07
2018-07-23T02:55:45.122Z,5.77
2018-07-23T02:58:13.625Z,5.97
2018-07-23T03:00:42.065Z,7.00
2018-07-23T03:03:10.825Z,6.40
2018-07-23T03:05:39.127Z,7.40
2018-07-23T03:08:07.435Z,7.43
2018-07-23T03:10:35.718Z,7.50
2018-07-23T03:13:04.020Z,8.07
2018-07-23T03:15:32.348Z,7.57
2018-07-23T03:18:00.601Z,8.67
2018-07-23T03:20:28.918Z,7.80
2018-07-23T03:22:57.228Z,8.23
2018-07-23T03:25:25.579Z,7.70
2018-07-23T03:27:53.817Z,7.37
2018-07-23T03:30:22.133Z,7.43
2018-07-23T03:32:50.480Z,6.17
2018-07-23T03:35:18.846Z,5.73
2018-07-23T03:37:47.117Z,6.40
2018-07-23T03:40:15.398Z,6.00
2018-07-23T03:42:43.648Z,6.00
2018-07-23T03:45:12.100Z,5.80
2018-07-23T03:47:40.374Z,6.60
2018-07-23T03:50:08.640Z,7.77
2018-07-23T03:52:36.954Z,7.13
2018-07-23T03:55:05.250Z,7.40
2018-07-23T03:57:33.566Z,6.57
2018-07-23T04:00:01.921Z,7.23
2018-07-23T04:02:30.023Z,7.27
2018-07-23T04:04:58.274Z,6.70
2018-07-23T04:07:26.294Z,6.60
2018-07-23T04:09:54.604Z,8.10
2018-07-23T04:12:22.919Z,6.10
2018-07-23T04:14:51.181Z,6.27
2018-07-23T04:17:19.464Z,5.43
2018-07-23T04:19:47.767Z,6.70
2018-07-23T04:22:16.039Z,5.90
2018-07-23T04:24:44.323Z,6.50
2018-07-23T04:27:12.641Z,6.20
2018-07-23T04:29:41.023Z,6.83
2018-07-23T04:32:09.573Z,7.20
2018-07-23T04:34:38.015Z,7.47
2018-07-23T04:37:06.305Z,8.47
2018-07-23T04:39:34.569Z,10.40
2018-07-23T04:42:02.857Z,12.43
2018-07-23T04:44:31.215Z,13.80
2018-07-23T04:46:59.516Z,9.67
2018-07-23T04:49:27.765Z,9.57
2018-07-23T04:51:56.053Z,9.03
2018-07-23T04:54:24.342Z,9.60
2018-07-23T04:56:52.719Z,9.63
2018-07-23T04:59:20.920Z,8.97
2018-07-23T05:01:49.189Z,9.60
2018-07-23T05:04:17.621Z,9.17
2018-07-23T05:06:45.896Z,9.63
2018-07-23T05:09:14.181Z,9.50
2018-07-23T05:11:42.487Z,10.17
2018-07-23T05:14:11.378Z,9.67
2018-07-23T05:16:39.897Z,9.73
2018-07-23T05:19:08.314Z,9.23
2018-07-23T05:21:36.756Z,9.77
2018-07-23T05:24:05.215Z,10.30
2018-07-23T05:26:33.530Z,10.67
2018-07-23T05:29:01.828Z,10.33
2018-07-23T05:31:30.099Z,10.30
2018-07-23T05:33:58.374Z,10.60
2018-07-23T05:36:26.677Z,11.10
2018-07-23T05:38:54.961Z,11.43
2018-07-23T05:41:23.212Z,10.50
2018-07-23T05:43:51.586Z,10.30
2018-07-23T05:46:19.886Z,9.43
2018-07-23T05:48:48.166Z,8.83
2018-07-23T05:51:16.473Z,8.27
2018-07-23T05:53:44.756Z,7.53
2018-07-23T05:56:13.042Z,7.03
2018-07-23T05:58:41.308Z,6.90
2018-07-23T06:01:09.294Z,5.80
2018-07-23T06:03:37.625Z,3.40
2018-07-23T06:06:05.930Z,2.60
2018-07-23T06:08:34.220Z,4.57
2018-07-23T06:11:02.472Z,5.57
2018-07-23T06:13:30.794Z,4.90
2018-07-23T06:15:59.046Z,4.37
2018-07-23T06:18:27.326Z,3.60
2018-07-23T06:20:55.580Z,3.00
2018-07-23T06:23:23.861Z,3.27
2018-07-23T06:25:52.223Z,3.10
2018-07-23T06:28:20.456Z,2.83
2018-07-23T06:30:48.699Z,2.80
2018-07-23T06:33:16.968Z,2.37
2018-07-23T06:35:45.257Z,2.40
2018-07-23T06:38:13.590Z,3.27
2018-07-23T06:40:41.870Z,2.90
2018-07-23T06:43:10.189Z,3.23
2018-07-23T06:45:38.448Z,3.60
2018-07-23T06:48:06.754Z,3.00
2018-07-23T06:50:35.072Z,3.03
2018-07-23T06:53:03.396Z,2.90
2018-07-23T06:55:31.665Z,3.90
2018-07-23T06:57:59.918Z,4.03
2018-07-23T07:00:28.343Z,3.80
2018-07-23T07:02:56.652Z,3.33
2018-07-23T07:05:24.906Z,3.57
2018-07-23T07:07:53.174Z,3.57
2018-07-23T07:10:21.435Z,3.70
2018-07-23T07:12:49.710Z,3.30
2018-07-23T07:15:18.058Z,3.40
2018-07-23T07:17:47.010Z,3.63
2018-07-23T07:20:15.270Z,3.80
2018-07-23T07:22:43.538Z,3.47
2018-07-23T07:25:12.026Z,4.37
2018-07-23T07:27:40.340Z,3.80
2018-07-23T07:30:09.180Z,4.20
2018-07-23T07:32:37.444Z,3.30
2018-07-23T07:35:05.738Z,3.60
2018-07-23T07:37:34.197Z,4.10
2018-07-23T07:40:02.253Z,3.27
2018-07-23T07:42:30.562Z,3.83
2018-07-23T07:44:58.844Z,3.90
2018-07-23T07:47:27.110Z,4.10
2018-07-23T07:49:55.364Z,3.33
2018-07-23T07:52:23.642Z,3.87
2018-07-23T07:54:51.920Z,4.40
2018-07-23T07:57:20.178Z,5.13
2018-07-23T07:59:48.198Z,4.80
2018-07-23T08:02:16.483Z,5.23
2018-07-23T08:04:44.750Z,5.43
2018-07-23T08:07:13.081Z,4.40
2018-07-23T08:09:41.335Z,3.97
2018-07-23T08:12:09.618Z,5.17
2018-07-23T08:14:37.990Z,5.10
2018-07-23T08:17:06.415Z,5.10
2018-07-23T08:19:34.687Z,4.97
2018-07-23T08:22:02.939Z,4.13
2018-07-23T08:24:31.198Z,4.80
2018-07-23T08:26:59.636Z,4.30
2018-07-23T08:29:27.892Z,4.30
2018-07-23T08:31:56.296Z,4.87
2018-07-23T08:34:24.461Z,4.53
2018-07-23T08:36:52.770Z,3.93
2018-07-23T08:39:21.075Z,4.60
2018-07-23T08:41:49.090Z,4.67
2018-07-23T08:44:17.356Z,5.13
2018-07-23T08:46:45.622Z,5.17
2018-07-23T08:49:14.042Z,5.57
2018-07-23T08:51:42.332Z,4.87
2018-07-23T08:54:10.588Z,4.37
2018-07-23T08:56:38.874Z,4.40
2018-07-23T08:59:07.210Z,4.10
2018-07-23T09:01:35.702Z,4.43
2018-07-23T09:04:04.021Z,5.20
2018-07-23T09:06:32.328Z,4.90
2018-07-23T09:09:00.487Z,5.17
2018-07-23T09:11:28.872Z,4.57
2018-07-23T09:13:57.180Z,4.00
2018-07-23T09:16:25.451Z,4.20
2018-07-23T09:18:53.744Z,4.30
2018-07-23T09:21:22.179Z,4.03
2018-07-23T09:23:50.333Z,4.40
2018-07-23T09:26:18.584Z,4.90
2018-07-23T09:28:46.858Z,4.47
2018-07-23T09:31:15.110Z,4.20
2018-07-23T09:33:43.577Z,3.87
2018-07-23T09:36:11.959Z,4.67
2018-07-23T09:38:40.266Z,4.00
2018-07-23T09:41:08.510Z,4.70
2018-07-23T09:43:36.787Z,3.83
2018-07-23T09:46:05.516Z,4.50
2018-07-23T09:48:33.818Z,4.70
2018-07-23T09:51:02.157Z,3.80
2018-07-23T09:53:30.457Z,3.50
2018-07-23T09:55:58.840Z,3.77
2018-07-23T09:58:27.147Z,3.90
2018-07-23T10:01:02.597Z,3.33
2018-07-23T10:03:31.046Z,3.50
2018-07-23T10:05:59.156Z,3.40
2018-07-23T10:08:28.257Z,3.53
2018-07-23T10:10:56.580Z,4.27
2018-07-23T10:13:24.854Z,3.30
2018-07-23T10:15:53.193Z,3.40
2018-07-23T10:18:21.496Z,3.63
2018-07-23T10:20:49.777Z,4.30
2018-07-23T10:23:18.056Z,3.63
2018-07-23T10:25:46.409Z,3.93
2018-07-23T10:28:14.652Z,3.80
2018-07-23T10:30:42.938Z,3.40
2018-07-23T10:33:11.202Z,2.93
2018-07-23T10:35:39.666Z,3.67
2018-07-23T10:38:07.922Z,2.90
2018-07-23T10:40:36.190Z,3.03
2018-07-23T10:43:04.531Z,3.53
2018-07-23T10:45:32.812Z,3.40
2018-07-23T10:48:01.074Z,3.30
2018-07-23T10:50:29.380Z,3.47
2018-07-23T10:52:57.664Z,3.27
2018-07-23T10:55:25.922Z,2.97
2018-07-23T10:57:54.991Z,3.00
2018-07-23T11:00:23.274Z,3.13
2018-07-23T11:02:51.562Z,3.40
2018-07-23T11:05:19.817Z,3.27
2018-07-23T11:07:48.110Z,3.07
2018-07-23T11:10:16.390Z,2.90
2018-07-23T11:12:44.661Z,2.93
2018-07-23T11:15:12.993Z,2.90
2018-07-23T11:17:41.397Z,3.93
2018-07-23T11:20:11.225Z,3.27
2018-07-23T11:22:39.724Z,3.23
2018-07-23T11:25:38.978Z,3.13
2018-07-23T11:27:36.405Z,2.87
2018-07-23T11:30:05.169Z,2.87
2018-07-23T11:32:33.852Z,2.83
2018-07-23T11:35:02.215Z,3.20
2018-07-23T11:37:30.460Z,3.10
2018-07-23T11:39:58.478Z,3.10
2018-07-23T11:42:26.912Z,2.90
2018-07-23T11:44:55.225Z,2.93
2018-07-23T11:47:23.498Z,3.57
2018-07-23T11:49:51.800Z,3.17
2018-07-23T11:52:20.060Z,3.30
2018-07-23T11:54:48.554Z,3.17
2018-07-23T11:57:16.978Z,3.10
2018-07-23T11:59:45.316Z,3.00
2018-07-23T12:02:13.646Z,3.50
2018-07-23T12:04:42.190Z,3.17
2018-07-23T12:07:10.310Z,3.50
2018-07-23T12:09:38.616Z,3.60
2018-07-23T12:12:07.356Z,3.30
2018-07-23T12:14:35.640Z,3.10
2018-07-23T12:17:03.932Z,3.40
2018-07-23T12:19:32.218Z,2.80
2018-07-23T12:22:00.583Z,3.30
2018-07-23T12:24:28.875Z,3.00
2018-07-23T12:26:57.134Z,2.53
2018-07-23T12:29:25.401Z,2.50
2018-07-23T12:31:53.707Z,2.53
2018-07-23T12:34:22.007Z,2.70
2018-07-23T12:36:50.258Z,2.57
2018-07-23T12:39:18.561Z,2.60
2018-07-23T12:41:46.871Z,3.00
2018-07-23T12:44:15.136Z,3.43
2018-07-23T12:46:43.571Z,3.30
2018-07-23T12:49:11.914Z,2.83
2018-07-23T12:51:40.188Z,3.30
2018-07-23T12:54:08.565Z,3.10
2018-07-23T12:56:36.918Z,3.07
2018-07-23T12:59:05.222Z,2.63
2018-07-23T13:01:33.502Z,2.80
2018-07-23T13:04:01.778Z,2.83
2018-07-23T13:06:30.085Z,2.83
2018-07-23T13:08:58.362Z,2.67
2018-07-23T13:11:26.674Z,2.43
2018-07-23T13:13:54.950Z,2.57
2018-07-23T13:16:23.494Z,2.60
2018-07-23T13:18:51.768Z,2.60
2018-07-23T13:21:20.070Z,2.83
2018-07-23T13:23:48.466Z,3.30
2018-07-23T13:26:16.752Z,2.63
2018-07-23T13:28:45.259Z,2.53
2018-07-23T13:31:13.790Z,2.47
2018-07-23T13:33:42.056Z,2.53
2018-07-23T13:36:10.324Z,2.60
2018-07-23T13:38:38.582Z,2.33
2018-07-23T13:41:07.363Z,2.50
2018-07-23T13:43:35.643Z,2.50
2018-07-23T13:46:03.990Z,2.20
2018-07-23T13:48:32.018Z,2.40
2018-07-23T13:51:00.321Z,2.40
2018-07-23T13:53:28.329Z,2.50
2018-07-23T13:55:56.638Z,2.43
2018-07-23T13:58:24.906Z,2.70
2018-07-23T14:00:53.475Z,2.50
2018-07-23T14:03:21.931Z,2.40
2018-07-23T14:05:50.242Z,2.50
2018-07-23T14:08:18.504Z,2.30
2018-07-23T14:10:46.774Z,2.50
2018-07-23T14:13:15.205Z,2.40
2018-07-23T14:15:43.526Z,2.77
2018-07-23T14:18:11.917Z,2.30
2018-07-23T14:20:40.193Z,2.70
2018-07-23T14:23:08.511Z,2.70
2018-07-23T14:25:36.868Z,2.70
2018-07-23T14:28:05.352Z,2.30
2018-07-23T14:30:33.705Z,2.70
2018-07-23T14:33:02.035Z,2.53
2018-07-23T14:35:30.349Z,2.40
2018-07-23T14:37:58.720Z,2.37
2018-07-23T14:40:27.119Z,2.40
2018-07-23T14:42:55.564Z,2.60
2018-07-23T14:45:23.962Z,2.60
2018-07-23T14:47:52.547Z,2.70
2018-07-23T14:50:21.125Z,2.87
2018-07-23T14:52:49.419Z,3.00
2018-07-23T14:55:17.743Z,2.80
2018-07-23T14:57:46.201Z,2.80
2018-07-23T15:00:14.789Z,2.40
2018-07-23T15:02:43.273Z,2.70
2018-07-23T15:05:11.691Z,2.57
2018-07-23T15:07:39.991Z,2.70
2018-07-23T15:10:08.573Z,2.87
2018-07-23T15:12:36.857Z,2.70
2018-07-23T15:15:05.279Z,2.67
2018-07-23T15:17:33.591Z,2.70
2018-07-23T15:20:01.896Z,2.40
2018-07-23T15:22:30.196Z,2.90
2018-07-23T15:24:58.627Z,2.80
2018-07-23T15:27:26.950Z,2.50
2018-07-23T15:29:55.194Z,2.40
2018-07-23T15:32:23.762Z,2.87
2018-07-23T15:34:52.209Z,2.47
2018-07-23T15:37:20.309Z,2.83
2018-07-23T15:39:48.586Z,2.50
2018-07-23T15:42:16.988Z,2.77
2018-07-23T15:44:45.565Z,2.60
2018-07-23T15:47:13.553Z,2.53
2018-07-23T15:49:41.876Z,3.07
2018-07-23T15:52:10.276Z,2.70
2018-07-23T15:54:38.552Z,2.50
2018-07-23T15:57:06.849Z,2.30
2018-07-23T15:59:35.206Z,3.23
2018-07-23T16:02:03.500Z,3.30
2018-07-23T16:04:31.799Z,2.90
2018-07-23T16:07:00.100Z,2.77
2018-07-23T16:09:28.596Z,3.13
2018-07-23T16:11:56.921Z,2.77
2018-07-23T16:14:25.311Z,3.20
2018-07-23T16:16:53.574Z,2.90
2018-07-23T16:19:22.035Z,5.27
2018-07-23T16:21:50.332Z,3.70
2018-07-23T16:24:18.650Z,3.00
2018-07-23T16:26:46.947Z,3.07
2018-07-23T16:29:15.275Z,7.97
2018-07-23T16:31:43.588Z,6.40
2018-07-23T16:34:11.917Z,4.30
2018-07-23T16:36:40.233Z,7.40
2018-07-23T16:39:10.328Z,4.40
2018-07-23T16:41:38.712Z,3.10
2018-07-23T16:44:07.485Z,3.70
2018-07-23T16:46:36.132Z,4.23
2018-07-23T16:49:04.146Z,3.10
2018-07-23T16:51:32.582Z,3.40
2018-07-23T16:54:01.141Z,3.60
2018-07-23T16:56:30.697Z,4.30
2018-07-23T16:58:59.362Z,3.40
2018-07-23T17:01:27.641Z,3.47
2018-07-23T17:03:55.909Z,3.23
2018-07-23T17:06:24.207Z,3.70
2018-07-23T17:08:52.539Z,3.50
2018-07-23T17:11:20.818Z,4.17
2018-07-23T17:13:49.123Z,3.73
2018-07-23T17:16:17.615Z,3.90
2018-07-23T17:18:46.003Z,4.30
2018-07-23T17:21:14.287Z,5.10
2018-07-23T17:23:42.736Z,3.60
2018-07-23T17:26:11.004Z,4.00
2018-07-23T17:28:39.310Z,4.53
2018-07-23T17:31:07.997Z,5.07
2018-07-23T17:33:36.252Z,4.80
2018-07-23T17:36:04.872Z,4.77
2018-07-23T17:38:33.173Z,4.70
2018-07-23T17:41:01.529Z,4.50
2018-07-23T17:43:29.781Z,5.00
2018-07-23T17:45:58.151Z,4.57
2018-07-23T17:48:26.547Z,5.20
2018-07-23T17:50:54.827Z,4.80
2018-07-23T17:53:23.166Z,4.67
2018-07-23T17:55:51.542Z,4.57
2018-07-23T17:58:19.803Z,4.90
2018-07-23T18:00:48.099Z,5.00
2018-07-23T18:03:16.543Z,5.13
2018-07-23T18:05:44.841Z,5.03
2018-07-23T18:08:13.124Z,4.77
2018-07-23T18:10:41.628Z,4.63
2018-07-23T18:13:09.991Z,5.80
2018-07-23T18:15:38.278Z,4.93
2018-07-23T18:18:06.590Z,5.33
2018-07-23T18:20:34.863Z,5.37
2018-07-23T18:23:03.183Z,5.50
2018-07-23T18:25:31.553Z,5.10
2018-07-23T18:27:59.879Z,5.33
2018-07-23T18:30:28.138Z,4.67
2018-07-23T18:32:56.499Z,5.07
2018-07-23T18:35:24.784Z,6.23
2018-07-23T18:37:53.112Z,5.63
2018-07-23T18:40:21.573Z,5.20
2018-07-23T18:42:50.181Z,5.30
2018-07-23T18:45:18.581Z,5.93
2018-07-23T18:47:46.971Z,7.00
2018-07-23T18:50:15.245Z,6.67
2018-07-23T18:52:43.540Z,6.23
2018-07-23T18:55:11.843Z,6.33
2018-07-23T18:57:40.116Z,6.20
2018-07-23T19:00:08.926Z,5.43
2018-07-23T19:02:37.265Z,5.43
2018-07-23T19:05:05.801Z,5.97
2018-07-23T19:07:34.280Z,6.77
2018-07-23T19:10:02.559Z,6.13
2018-07-23T19:12:30.952Z,5.40
2018-07-23T19:14:59.320Z,4.57
2018-07-23T19:17:27.829Z,4.57
2018-07-23T19:19:56.355Z,4.70
2018-07-23T19:22:24.619Z,5.00
2018-07-23T19:24:53.071Z,4.20
2018-07-23T19:27:21.454Z,4.10
2018-07-23T19:29:49.739Z,4.10
2018-07-23T19:32:18.406Z,4.40
2018-07-23T19:34:46.684Z,3.67
2018-07-23T19:37:14.951Z,3.97
2018-07-23T19:39:43.329Z,4.07
2018-07-23T19:42:11.611Z,3.67
2018-07-23T19:44:39.927Z,3.47
2018-07-23T19:47:08.305Z,3.40
2018-07-23T19:49:36.625Z,3.70
2018-07-23T19:52:05.067Z,4.00
2018-07-23T19:54:33.377Z,3.80
2018-07-23T19:57:01.777Z,3.97
2018-07-23T19:59:30.113Z,3.13
2018-07-23T20:01:58.426Z,3.13
2018-07-23T20:04:26.779Z,12.23
2018-07-23T20:06:55.068Z,6.63
2018-07-23T20:09:23.363Z,3.60
2018-07-23T20:11:51.777Z,3.07
2018-07-23T20:14:20.433Z,3.57
2018-07-23T20:16:48.923Z,3.13
2018-07-23T20:19:17.262Z,3.50
2018-07-23T20:21:45.631Z,3.50
2018-07-23T20:24:13.903Z,3.37
2018-07-23T20:26:42.297Z,3.20
2018-07-23T20:29:10.724Z,3.43
2018-07-23T20:31:39.414Z,3.33
2018-07-23T20:34:07.780Z,3.50
2018-07-23T20:36:36.206Z,3.23
2018-07-23T20:39:06.724Z,3.00
2018-07-23T20:41:35.437Z,3.40
2018-07-23T20:44:03.789Z,4.00
2018-07-23T20:46:32.500Z,3.90
2018-07-23T20:49:00.839Z,3.37
2018-07-23T20:51:29.296Z,3.43
2018-07-23T20:53:57.434Z,3.60
2018-07-23T20:56:26.138Z,4.17
2018-07-23T20:58:54.624Z,4.47
2018-07-23T21:01:23.095Z,19.30
2018-07-23T21:03:51.416Z,14.13
2018-07-23T21:06:19.838Z,5.23
2018-07-23T21:08:48.318Z,4.80
2018-07-23T21:11:16.918Z,4.93
2018-07-23T21:13:45.681Z,4.97
2018-07-23T21:16:14.047Z,4.60
2018-07-23T21:18:42.660Z,4.60
2018-07-23T21:21:11.059Z,5.07
2018-07-23T21:23:39.838Z,4.87
2018-07-23T21:26:08.234Z,4.83
2018-07-23T21:28:36.936Z,4.37
2018-07-23T21:31:05.999Z,4.63
2018-07-23T21:33:34.591Z,4.67
2018-07-23T21:36:03.371Z,4.80
2018-07-23T21:38:31.769Z,4.77
2018-07-23T21:41:00.031Z,4.93
2018-07-23T21:43:28.393Z,5.53
2018-07-23T21:45:56.707Z,5.40
2018-07-23T21:48:25.109Z,5.37
2018-07-23T21:50:53.374Z,5.00
2018-07-23T21:53:21.664Z,4.40
2018-07-23T21:55:50.019Z,5.20
2018-07-23T21:58:18.457Z,4.77
2018-07-23T22:00:46.981Z,5.17
2018-07-23T22:03:15.435Z,4.40
2018-07-23T22:05:43.737Z,4.63
2018-07-23T22:08:12.246Z,4.00
2018-07-23T22:10:40.541Z,4.50
2018-07-23T22:13:08.845Z,4.17
2018-07-23T22:15:37.180Z,4.00
2018-07-23T22:18:05.381Z,3.70
2018-07-23T22:20:33.819Z,4.03
2018-07-23T22:23:02.181Z,3.70
2018-07-23T22:25:31.596Z,4.10
2018-07-23T22:27:59.974Z,3.87
2018-07-23T22:30:28.359Z,4.00
2018-07-23T22:32:56.641Z,4.33
2018-07-23T22:35:25.019Z,4.30
2018-07-23T22:37:53.298Z,4.80
2018-07-23T22:40:21.599Z,4.47
2018-07-23T22:42:49.876Z,4.67
2018-07-23T22:45:18.351Z,5.90
2018-07-23T22:47:46.597Z,5.33
2018-07-23T22:50:14.905Z,5.20
2018-07-23T22:52:43.209Z,4.93
2018-07-23T22:55:11.552Z,5.47
2018-07-23T22:57:39.905Z,5.60
2018-07-23T23:00:08.431Z,5.20
2018-07-23T23:02:36.688Z,4.67
2018-07-23T23:05:05.160Z,4.93
2018-07-23T23:07:33.308Z,4.27
2018-07-23T23:10:01.604Z,4.50
2018-07-23T23:12:30.007Z,3.97
2018-07-23T23:14:58.270Z,4.43
2018-07-23T23:17:26.564Z,4.17
2018-07-23T23:19:54.907Z,4.20
2018-07-23T23:22:23.212Z,4.53
2018-07-23T23:24:51.495Z,4.40
2018-07-23T23:27:19.846Z,4.60
2018-07-23T23:29:48.162Z,4.00
2018-07-23T23:32:16.528Z,3.97
2018-07-23T23:34:44.877Z,4.37
2018-07-23T23:37:13.568Z,4.13
2018-07-23T23:39:41.862Z,4.47
2018-07-23T23:42:10.276Z,4.33
2018-07-23T23:44:38.570Z,4.07
2018-07-23T23:47:06.823Z,4.53
2018-07-23T23:49:35.146Z,4.00
2018-07-23T23:52:03.390Z,3.90
2018-07-23T23:54:31.878Z,4.40
2018-07-23T23:57:00.418Z,4.37
2018-07-23T23:59:28.687Z,4.60
